sensor_id;sensor_type;location;lat;lon;timestamp;temperature;humidity
17529;DHT22;8882;53.192;8.184;2023-06-14T04:30:56;14.50;99.90
17529;DHT22;8882;53.192;8.184;2023-06-14T04:33:21;14.60;99.90
17529;DHT22;8882;53.192;8.184;2023-06-14T04:35:50;14.60;99.90
17529;DHT22;8882;53.192;8.184;2023-06-14T04:38:19;14.70;99.90
17529;DHT22;8882;53.192;8.184;2023-06-14T04:40:49;14.70;99.90
17529;DHT22;8882;53.192;8.184;2023-06-14T04:43:18;14.80;99.90
17529;DHT22;8882;53.192;8.184;2023-06-14T04:45:43;14.80;99.90
17529;DHT22;8882;53.192;8.184;2023-06-14T04:48:11;14.80;99.90
17529;DHT22;8882;53.192;8.184;2023-06-14T04:50:37;14.90;99.90
17529;DHT22;8882;53.192;8.184;2023-06-14T04:53:03;14.90;99.90
17529;DHT22;8882;53.192;8.184;2023-06-14T04:55:28;14.90;99.90
17529;DHT22;8882;53.192;8.184;2023-06-14T04:57:53;15.00;99.90
17529;DHT22;8882;53.192;8.184;2023-06-14T05:00:20;15.10;99.90
17529;DHT22;8882;53.192;8.184;2023-06-14T05:02:46;15.20;99.90
17529;DHT22;8882;53.192;8.184;2023-06-14T05:05:12;15.20;99.90
17529;DHT22;8882;53.192;8.184;2023-06-14T05:07:38;15.30;99.90
17529;DHT22;8882;53.192;8.184;2023-06-14T05:10:04;15.40;99.90
17529;DHT22;8882;53.192;8.184;2023-06-14T05:12:30;15.60;99.90
17529;DHT22;8882;53.192;8.184;2023-06-14T05:14:56;15.90;99.90
17529;DHT22;8882;53.192;8.184;2023-06-14T05:17:24;16.10;99.90
17529;DHT22;8882;53.192;8.184;2023-06-14T05:19:49;16.40;99.90
17529;DHT22;8882;53.192;8.184;2023-06-14T05:22:15;16.60;99.90
17529;DHT22;8882;53.192;8.184;2023-06-14T05:24:40;16.90;99.90
17529;DHT22;8882;53.192;8.184;2023-06-14T05:27:07;17.20;99.90
17529;DHT22;8882;53.192;8.184;2023-06-14T05:29:32;17.40;99.90
17529;DHT22;8882;53.192;8.184;2023-06-14T05:31:58;17.50;99.90
17529;DHT22;8882;53.192;8.184;2023-06-14T05:34:24;17.50;99.90
17529;DHT22;8882;53.192;8.184;2023-06-14T05:36:49;17.80;99.90
17529;DHT22;8882;53.192;8.184;2023-06-14T05:39:15;17.90;99.90
17529;DHT22;8882;53.192;8.184;2023-06-14T05:41:41;18.00;99.90
17529;DHT22;8882;53.192;8.184;2023-06-14T05:44:06;18.40;99.90
17529;DHT22;8882;53.192;8.184;2023-06-14T05:46:33;18.50;99.90
17529;DHT22;8882;53.192;8.184;2023-06-14T05:48:58;18.60;99.90
17529;DHT22;8882;53.192;8.184;2023-06-14T05:51:24;18.50;99.90
17529;DHT22;8882;53.192;8.184;2023-06-14T05:53:50;18.50;99.90
17529;DHT22;8882;53.192;8.184;2023-06-14T05:56:17;18.50;99.90
17529;DHT22;8882;53.192;8.184;2023-06-14T05:58:44;18.60;99.90
17529;DHT22;8882;53.192;8.184;2023-06-14T06:01:10;18.60;99.90
17529;DHT22;8882;53.192;8.184;2023-06-14T06:03:35;18.60;99.90
17529;DHT22;8882;53.192;8.184;2023-06-14T06:06:01;18.70;99.90
17529;DHT22;8882;53.192;8.184;2023-06-14T06:08:28;18.80;99.90
17529;DHT22;8882;53.192;8.184;2023-06-14T06:10:54;18.80;99.90
17529;DHT22;8882;53.192;8.184;2023-06-14T06:13:19;18.70;99.90
17529;DHT22;8882;53.192;8.184;2023-06-14T06:15:45;18.70;99.90
17529;DHT22;8882;53.192;8.184;2023-06-14T06:18:11;18.90;99.90
17529;DHT22;8882;53.192;8.184;2023-06-14T06:20:36;19.30;99.90
17529;DHT22;8882;53.192;8.184;2023-06-14T06:23:02;19.60;99.90
17529;DHT22;8882;53.192;8.184;2023-06-14T06:25:28;19.60;99.90
17529;DHT22;8882;53.192;8.184;2023-06-14T06:27:55;19.60;99.90
17529;DHT22;8882;53.192;8.184;2023-06-14T06:30:24;19.60;99.90
17529;DHT22;8882;53.192;8.184;2023-06-14T06:32:50;19.60;99.90
17529;DHT22;8882;53.192;8.184;2023-06-14T06:35:16;19.80;99.90
17529;DHT22;8882;53.192;8.184;2023-06-14T06:37:42;20.00;99.90
17529;DHT22;8882;53.192;8.184;2023-06-14T06:40:08;20.00;99.90
17529;DHT22;8882;53.192;8.184;2023-06-14T06:42:34;19.80;99.90
17529;DHT22;8882;53.192;8.184;2023-06-14T06:44:59;20.00;99.90
17529;DHT22;8882;53.192;8.184;2023-06-14T06:47:25;20.30;99.90
17529;DHT22;8882;53.192;8.184;2023-06-14T06:49:51;20.40;99.90
17529;DHT22;8882;53.192;8.184;2023-06-14T06:52:16;20.20;99.90
17529;DHT22;8882;53.192;8.184;2023-06-14T06:54:42;20.40;99.90
17529;DHT22;8882;53.192;8.184;2023-06-14T06:57:07;20.50;99.90
17529;DHT22;8882;53.192;8.184;2023-06-14T06:59:33;20.60;99.90
17529;DHT22;8882;53.192;8.184;2023-06-14T07:01:59;20.70;99.90
17529;DHT22;8882;53.192;8.184;2023-06-14T07:04:25;20.90;99.90
17529;DHT22;8882;53.192;8.184;2023-06-14T07:06:50;21.00;99.90
17529;DHT22;8882;53.192;8.184;2023-06-14T07:09:17;20.90;99.90
17529;DHT22;8882;53.192;8.184;2023-06-14T07:11:44;21.00;99.90
17529;DHT22;8882;53.192;8.184;2023-06-14T07:14:09;21.30;99.90
17529;DHT22;8882;53.192;8.184;2023-06-14T07:16:35;21.40;99.90
17529;DHT22;8882;53.192;8.184;2023-06-14T07:19:02;21.60;99.90
17529;DHT22;8882;53.192;8.184;2023-06-14T07:21:28;21.70;99.90
17529;DHT22;8882;53.192;8.184;2023-06-14T07:23:53;21.80;99.90
17529;DHT22;8882;53.192;8.184;2023-06-14T07:26:19;21.80;99.90
17529;DHT22;8882;53.192;8.184;2023-06-14T07:28:46;22.00;99.90
17529;DHT22;8882;53.192;8.184;2023-06-14T07:31:12;22.20;99.90
17529;DHT22;8882;53.192;8.184;2023-06-14T07:33:38;22.30;99.90
17529;DHT22;8882;53.192;8.184;2023-06-14T07:36:03;22.30;99.90
17529;DHT22;8882;53.192;8.184;2023-06-14T07:38:29;22.40;99.90
17529;DHT22;8882;53.192;8.184;2023-06-14T07:40:55;22.40;99.90
17529;DHT22;8882;53.192;8.184;2023-06-14T07:43:20;22.60;99.90
17529;DHT22;8882;53.192;8.184;2023-06-14T07:45:46;22.50;99.90
17529;DHT22;8882;53.192;8.184;2023-06-14T07:48:11;22.40;99.90
17529;DHT22;8882;53.192;8.184;2023-06-14T07:50:37;22.20;99.90
17529;DHT22;8882;53.192;8.184;2023-06-14T07:53:02;22.10;99.90
17529;DHT22;8882;53.192;8.184;2023-06-14T07:55:28;22.30;99.90
17529;DHT22;8882;53.192;8.184;2023-06-14T07:57:54;22.40;99.90
17529;DHT22;8882;53.192;8.184;2023-06-14T08:00:20;22.40;99.90
17529;DHT22;8882;53.192;8.184;2023-06-14T08:02:46;22.40;99.90
17529;DHT22;8882;53.192;8.184;2023-06-14T08:05:11;22.70;99.90
17529;DHT22;8882;53.192;8.184;2023-06-14T08:07:40;22.60;99.90
17529;DHT22;8882;53.192;8.184;2023-06-14T08:10:06;22.70;99.90
17529;DHT22;8882;53.192;8.184;2023-06-14T08:12:33;22.70;99.90
17529;DHT22;8882;53.192;8.184;2023-06-14T08:14:59;22.70;99.90
17529;DHT22;8882;53.192;8.184;2023-06-14T08:17:25;22.30;99.90
17529;DHT22;8882;53.192;8.184;2023-06-14T08:19:50;22.30;99.90
17529;DHT22;8882;53.192;8.184;2023-06-14T08:22:16;22.30;99.90
17529;DHT22;8882;53.192;8.184;2023-06-14T08:24:43;22.40;99.90
17529;DHT22;8882;53.192;8.184;2023-06-14T08:27:09;22.30;99.90
17529;DHT22;8882;53.192;8.184;2023-06-14T08:29:35;22.50;99.90
17529;DHT22;8882;53.192;8.184;2023-06-14T08:32:00;22.70;99.90
17529;DHT22;8882;53.192;8.184;2023-06-14T08:34:27;22.80;99.90
17529;DHT22;8882;53.192;8.184;2023-06-14T08:36:52;22.70;99.90
17529;DHT22;8882;53.192;8.184;2023-06-14T08:39:18;22.70;99.90
17529;DHT22;8882;53.192;8.184;2023-06-14T08:41:46;22.80;99.90
17529;DHT22;8882;53.192;8.184;2023-06-14T08:44:15;22.90;99.90
17529;DHT22;8882;53.192;8.184;2023-06-14T08:46:41;22.90;99.90
17529;DHT22;8882;53.192;8.184;2023-06-14T08:49:08;23.00;99.90
17529;DHT22;8882;53.192;8.184;2023-06-14T08:51:36;23.00;99.90
17529;DHT22;8882;53.192;8.184;2023-06-14T08:54:03;23.30;99.90
17529;DHT22;8882;53.192;8.184;2023-06-14T08:56:30;23.30;99.90
17529;DHT22;8882;53.192;8.184;2023-06-14T08:58:57;23.50;99.90
17529;DHT22;8882;53.192;8.184;2023-06-14T09:01:26;23.70;99.90
17529;DHT22;8882;53.192;8.184;2023-06-14T09:03:52;23.70;99.90
17529;DHT22;8882;53.192;8.184;2023-06-14T09:06:20;23.70;99.90
17529;DHT22;8882;53.192;8.184;2023-06-14T09:08:48;23.90;99.90
17529;DHT22;8882;53.192;8.184;2023-06-14T09:11:15;24.00;99.90
17529;DHT22;8882;53.192;8.184;2023-06-14T09:13:41;24.10;99.90
17529;DHT22;8882;53.192;8.184;2023-06-14T09:16:07;23.80;99.90
17529;DHT22;8882;53.192;8.184;2023-06-14T09:18:41;23.90;99.90
17529;DHT22;8882;53.192;8.184;2023-06-14T09:21:10;23.80;99.90
17529;DHT22;8882;53.192;8.184;2023-06-14T09:23:38;23.80;99.90
17529;DHT22;8882;53.192;8.184;2023-06-14T09:26:08;23.70;99.90
17529;DHT22;8882;53.192;8.184;2023-06-14T09:28:35;23.70;99.90
17529;DHT22;8882;53.192;8.184;2023-06-14T09:31:01;23.60;99.90
17529;DHT22;8882;53.192;8.184;2023-06-14T09:33:27;23.70;99.90
17529;DHT22;8882;53.192;8.184;2023-06-14T09:35:54;23.90;99.90
17529;DHT22;8882;53.192;8.184;2023-06-14T09:38:20;23.80;99.90
17529;DHT22;8882;53.192;8.184;2023-06-14T09:40:45;23.80;99.90
17529;DHT22;8882;53.192;8.184;2023-06-14T09:43:11;23.80;99.90
17529;DHT22;8882;53.192;8.184;2023-06-14T09:45:40;23.70;99.90
17529;DHT22;8882;53.192;8.184;2023-06-14T09:48:07;23.90;99.90
17529;DHT22;8882;53.192;8.184;2023-06-14T09:50:34;24.20;99.90
17529;DHT22;8882;53.192;8.184;2023-06-14T09:53:05;24.10;99.90
17529;DHT22;8882;53.192;8.184;2023-06-14T09:55:34;23.90;99.90
17529;DHT22;8882;53.192;8.184;2023-06-14T09:58:04;24.00;99.90
17529;DHT22;8882;53.192;8.184;2023-06-14T10:00:32;24.10;99.90
17529;DHT22;8882;53.192;8.184;2023-06-14T10:03:03;24.20;99.90
17529;DHT22;8882;53.192;8.184;2023-06-14T10:05:29;24.10;99.90
17529;DHT22;8882;53.192;8.184;2023-06-14T10:08:08;24.00;99.90
17529;DHT22;8882;53.192;8.184;2023-06-14T10:10:34;24.00;99.90
17529;DHT22;8882;53.192;8.184;2023-06-14T10:13:00;24.00;99.90
17529;DHT22;8882;53.192;8.184;2023-06-14T10:18:19;24.00;99.90
17529;DHT22;8882;53.192;8.184;2023-06-14T10:21:08;24.10;99.90
17529;DHT22;8882;53.192;8.184;2023-06-14T10:23:41;24.20;99.90
17529;DHT22;8882;53.192;8.184;2023-06-14T10:26:08;24.10;99.90
17529;DHT22;8882;53.192;8.184;2023-06-14T10:28:37;24.20;99.90
17529;DHT22;8882;53.192;8.184;2023-06-14T10:31:04;24.00;99.90
17529;DHT22;8882;53.192;8.184;2023-06-14T10:33:30;24.00;99.90
17529;DHT22;8882;53.192;8.184;2023-06-14T10:39:12;23.80;99.90
17529;DHT22;8882;53.192;8.184;2023-06-14T10:41:41;23.90;99.90
17529;DHT22;8882;53.192;8.184;2023-06-14T10:46:58;24.10;99.90
17529;DHT22;8882;53.192;8.184;2023-06-14T10:49:43;24.10;99.90
17529;DHT22;8882;53.192;8.184;2023-06-14T10:52:11;24.20;99.90
17529;DHT22;8882;53.192;8.184;2023-06-14T10:57:30;24.50;99.90
17529;DHT22;8882;53.192;8.184;2023-06-14T11:00:00;24.70;99.90
17529;DHT22;8882;53.192;8.184;2023-06-14T11:02:49;25.00;99.90
17529;DHT22;8882;53.192;8.184;2023-06-14T11:05:24;24.70;99.90
17529;DHT22;8882;53.192;8.184;2023-06-14T11:08:24;24.80;99.90
17529;DHT22;8882;53.192;8.184;2023-06-14T11:10:54;25.00;99.90
17529;DHT22;8882;53.192;8.184;2023-06-14T11:13:25;24.90;99.90
17529;DHT22;8882;53.192;8.184;2023-06-14T11:15:50;24.90;99.90
17529;DHT22;8882;53.192;8.184;2023-06-14T11:18:18;24.90;99.90
17529;DHT22;8882;53.192;8.184;2023-06-14T11:20:46;24.80;99.90
17529;DHT22;8882;53.192;8.184;2023-06-14T11:23:12;24.90;99.90
17529;DHT22;8882;53.192;8.184;2023-06-14T11:25:37;25.00;99.90
17529;DHT22;8882;53.192;8.184;2023-06-14T11:28:03;25.20;99.90
17529;DHT22;8882;53.192;8.184;2023-06-14T11:30:28;25.10;99.90
17529;DHT22;8882;53.192;8.184;2023-06-14T11:32:55;25.20;99.90
17529;DHT22;8882;53.192;8.184;2023-06-14T11:35:25;25.30;99.90
17529;DHT22;8882;53.192;8.184;2023-06-14T11:37:55;25.00;99.90
17529;DHT22;8882;53.192;8.184;2023-06-14T11:40:24;24.90;99.90
17529;DHT22;8882;53.192;8.184;2023-06-14T11:42:53;24.80;99.90
17529;DHT22;8882;53.192;8.184;2023-06-14T11:45:23;25.00;99.90
17529;DHT22;8882;53.192;8.184;2023-06-14T11:47:48;25.10;99.90
17529;DHT22;8882;53.192;8.184;2023-06-14T11:50:14;25.30;99.90
17529;DHT22;8882;53.192;8.184;2023-06-14T11:52:39;25.30;99.90
17529;DHT22;8882;53.192;8.184;2023-06-14T11:55:06;25.40;99.90
17529;DHT22;8882;53.192;8.184;2023-06-14T11:57:35;25.50;99.90
17529;DHT22;8882;53.192;8.184;2023-06-14T12:00:04;25.30;99.90
17529;DHT22;8882;53.192;8.184;2023-06-14T12:02:33;25.30;99.90
17529;DHT22;8882;53.192;8.184;2023-06-14T12:05:05;25.40;99.90
17529;DHT22;8882;53.192;8.184;2023-06-14T12:07:33;25.20;99.90
17529;DHT22;8882;53.192;8.184;2023-06-14T12:12:24;25.10;99.90
17529;DHT22;8882;53.192;8.184;2023-06-14T12:14:51;25.20;99.90
17529;DHT22;8882;53.192;8.184;2023-06-14T12:17:17;25.20;99.90
17529;DHT22;8882;53.192;8.184;2023-06-14T12:19:44;25.20;99.90
17529;DHT22;8882;53.192;8.184;2023-06-14T12:22:11;25.20;99.90
17529;DHT22;8882;53.192;8.184;2023-06-14T12:24:37;25.00;99.90
17529;DHT22;8882;53.192;8.184;2023-06-14T12:27:06;25.10;99.90
17529;DHT22;8882;53.192;8.184;2023-06-14T12:29:32;25.30;99.90
17529;DHT22;8882;53.192;8.184;2023-06-14T12:31:58;25.30;99.90
17529;DHT22;8882;53.192;8.184;2023-06-14T12:34:24;25.30;99.90
17529;DHT22;8882;53.192;8.184;2023-06-14T12:36:50;24.90;99.90
17529;DHT22;8882;53.192;8.184;2023-06-14T12:39:16;24.90;99.90
17529;DHT22;8882;53.192;8.184;2023-06-14T12:41:42;25.20;99.90
17529;DHT22;8882;53.192;8.184;2023-06-14T12:44:08;25.20;99.90
17529;DHT22;8882;53.192;8.184;2023-06-14T12:46:34;25.00;99.90
17529;DHT22;8882;53.192;8.184;2023-06-14T12:49:00;24.90;99.90
17529;DHT22;8882;53.192;8.184;2023-06-14T12:51:35;25.10;99.90
17529;DHT22;8882;53.192;8.184;2023-06-14T12:54:01;25.40;99.90
17529;DHT22;8882;53.192;8.184;2023-06-14T12:56:26;25.40;99.90
17529;DHT22;8882;53.192;8.184;2023-06-14T12:58:52;25.50;99.90
17529;DHT22;8882;53.192;8.184;2023-06-14T13:01:18;25.50;99.90
17529;DHT22;8882;53.192;8.184;2023-06-14T13:03:44;25.50;99.90
17529;DHT22;8882;53.192;8.184;2023-06-14T13:06:10;25.40;99.90
17529;DHT22;8882;53.192;8.184;2023-06-14T13:08:36;25.60;99.90
17529;DHT22;8882;53.192;8.184;2023-06-14T13:11:01;25.70;99.90
17529;DHT22;8882;53.192;8.184;2023-06-14T13:13:27;25.90;99.90
17529;DHT22;8882;53.192;8.184;2023-06-14T13:15:52;25.70;99.90
17529;DHT22;8882;53.192;8.184;2023-06-14T13:18:18;25.70;99.90
17529;DHT22;8882;53.192;8.184;2023-06-14T13:20:44;25.80;99.90
17529;DHT22;8882;53.192;8.184;2023-06-14T13:23:10;25.90;99.90
17529;DHT22;8882;53.192;8.184;2023-06-14T13:25:37;26.00;99.90
17529;DHT22;8882;53.192;8.184;2023-06-14T13:28:04;26.00;99.90
17529;DHT22;8882;53.192;8.184;2023-06-14T13:30:30;26.00;99.90
17529;DHT22;8882;53.192;8.184;2023-06-14T13:32:56;25.90;99.90
17529;DHT22;8882;53.192;8.184;2023-06-14T13:35:22;25.90;99.90
17529;DHT22;8882;53.192;8.184;2023-06-14T13:37:48;25.80;99.90
17529;DHT22;8882;53.192;8.184;2023-06-14T13:40:13;25.60;99.90
17529;DHT22;8882;53.192;8.184;2023-06-14T13:42:39;25.50;99.90
17529;DHT22;8882;53.192;8.184;2023-06-14T13:45:06;25.40;99.90
17529;DHT22;8882;53.192;8.184;2023-06-14T13:47:32;25.10;99.90
17529;DHT22;8882;53.192;8.184;2023-06-14T13:49:58;25.10;99.90
17529;DHT22;8882;53.192;8.184;2023-06-14T13:52:24;25.00;99.90
17529;DHT22;8882;53.192;8.184;2023-06-14T13:54:49;24.90;99.90
17529;DHT22;8882;53.192;8.184;2023-06-14T13:57:15;24.80;99.90
17529;DHT22;8882;53.192;8.184;2023-06-14T13:59:41;25.00;99.90
17529;DHT22;8882;53.192;8.184;2023-06-14T14:02:07;25.10;99.90
17529;DHT22;8882;53.192;8.184;2023-06-14T14:04:33;25.20;99.90
17529;DHT22;8882;53.192;8.184;2023-06-14T14:07:00;25.20;99.90
17529;DHT22;8882;53.192;8.184;2023-06-14T14:09:26;25.20;99.90
17529;DHT22;8882;53.192;8.184;2023-06-14T14:11:52;24.90;99.90
17529;DHT22;8882;53.192;8.184;2023-06-14T14:14:17;24.90;99.90
17529;DHT22;8882;53.192;8.184;2023-06-14T14:16:43;24.70;99.90
17529;DHT22;8882;53.192;8.184;2023-06-14T14:19:08;24.70;99.90
17529;DHT22;8882;53.192;8.184;2023-06-14T14:21:34;24.70;99.90
17529;DHT22;8882;53.192;8.184;2023-06-14T14:24:00;24.80;99.90
17529;DHT22;8882;53.192;8.184;2023-06-14T14:26:26;24.70;99.90
17529;DHT22;8882;53.192;8.184;2023-06-14T14:28:51;24.90;99.90
17529;DHT22;8882;53.192;8.184;2023-06-14T14:31:17;25.00;99.90
17529;DHT22;8882;53.192;8.184;2023-06-14T14:33:43;25.10;99.90
17529;DHT22;8882;53.192;8.184;2023-06-14T14:36:08;25.10;99.90
17529;DHT22;8882;53.192;8.184;2023-06-14T14:38:34;25.10;99.90
17529;DHT22;8882;53.192;8.184;2023-06-14T14:41:00;25.20;99.90
17529;DHT22;8882;53.192;8.184;2023-06-14T14:43:25;25.30;99.90
17529;DHT22;8882;53.192;8.184;2023-06-14T14:45:52;25.10;99.90
17529;DHT22;8882;53.192;8.184;2023-06-14T14:48:17;25.10;99.90
17529;DHT22;8882;53.192;8.184;2023-06-14T14:50:43;25.10;99.90
17529;DHT22;8882;53.192;8.184;2023-06-14T14:53:08;25.10;99.90
17529;DHT22;8882;53.192;8.184;2023-06-14T14:55:34;25.10;99.90
17529;DHT22;8882;53.192;8.184;2023-06-14T14:58:02;24.90;99.90
17529;DHT22;8882;53.192;8.184;2023-06-14T15:00:28;24.90;99.90
17529;DHT22;8882;53.192;8.184;2023-06-14T15:02:54;24.90;99.90
17529;DHT22;8882;53.192;8.184;2023-06-14T15:05:19;24.80;99.90
17529;DHT22;8882;53.192;8.184;2023-06-14T15:07:45;24.70;99.90
17529;DHT22;8882;53.192;8.184;2023-06-14T15:10:11;24.70;99.90
17529;DHT22;8882;53.192;8.184;2023-06-14T15:12:37;24.60;99.90
17529;DHT22;8882;53.192;8.184;2023-06-14T15:15:03;24.50;99.90
17529;DHT22;8882;53.192;8.184;2023-06-14T15:17:29;24.50;99.90
17529;DHT22;8882;53.192;8.184;2023-06-14T15:19:54;24.50;99.90
17529;DHT22;8882;53.192;8.184;2023-06-14T15:22:20;24.40;99.90
17529;DHT22;8882;53.192;8.184;2023-06-14T15:24:46;24.30;99.90
17529;DHT22;8882;53.192;8.184;2023-06-14T15:27:12;24.40;99.90
17529;DHT22;8882;53.192;8.184;2023-06-14T15:29:38;24.40;99.90
17529;DHT22;8882;53.192;8.184;2023-06-14T15:32:06;24.50;99.90
17529;DHT22;8882;53.192;8.184;2023-06-14T15:34:32;24.60;99.90
17529;DHT22;8882;53.192;8.184;2023-06-14T15:36:58;24.60;99.90
17529;DHT22;8882;53.192;8.184;2023-06-14T15:39:23;24.70;99.90
17529;DHT22;8882;53.192;8.184;2023-06-14T15:41:50;24.60;99.90
17529;DHT22;8882;53.192;8.184;2023-06-14T15:44:17;24.60;99.90
17529;DHT22;8882;53.192;8.184;2023-06-14T15:46:42;24.70;99.90
17529;DHT22;8882;53.192;8.184;2023-06-14T15:49:12;24.60;99.90
17529;DHT22;8882;53.192;8.184;2023-06-14T15:51:38;24.60;99.90
17529;DHT22;8882;53.192;8.184;2023-06-14T15:54:04;24.60;99.90
17529;DHT22;8882;53.192;8.184;2023-06-14T15:56:29;24.70;99.90
17529;DHT22;8882;53.192;8.184;2023-06-14T15:58:56;24.70;99.90
17529;DHT22;8882;53.192;8.184;2023-06-14T16:01:22;24.70;99.90
17529;DHT22;8882;53.192;8.184;2023-06-14T16:03:48;24.70;99.90
17529;DHT22;8882;53.192;8.184;2023-06-14T16:06:13;24.70;99.90
17529;DHT22;8882;53.192;8.184;2023-06-14T16:08:38;24.80;99.90
17529;DHT22;8882;53.192;8.184;2023-06-14T16:11:04;24.90;99.90
17529;DHT22;8882;53.192;8.184;2023-06-14T16:13:30;24.90;99.90
17529;DHT22;8882;53.192;8.184;2023-06-14T16:15:55;24.90;99.90
17529;DHT22;8882;53.192;8.184;2023-06-14T16:18:21;24.90;99.90
17529;DHT22;8882;53.192;8.184;2023-06-14T16:20:46;24.90;99.90
17529;DHT22;8882;53.192;8.184;2023-06-14T16:23:13;24.90;99.90
17529;DHT22;8882;53.192;8.184;2023-06-14T16:25:38;24.90;99.90
17529;DHT22;8882;53.192;8.184;2023-06-14T16:28:05;24.80;99.90
17529;DHT22;8882;53.192;8.184;2023-06-14T16:30:31;24.80;99.90
17529;DHT22;8882;53.192;8.184;2023-06-14T16:32:56;24.70;99.90
17529;DHT22;8882;53.192;8.184;2023-06-14T16:35:22;24.70;99.90
17529;DHT22;8882;53.192;8.184;2023-06-14T16:37:48;24.60;99.90
17529;DHT22;8882;53.192;8.184;2023-06-14T16:40:13;24.50;99.90
17529;DHT22;8882;53.192;8.184;2023-06-14T16:42:39;24.40;99.90
17529;DHT22;8882;53.192;8.184;2023-06-14T16:45:06;24.30;99.90
17529;DHT22;8882;53.192;8.184;2023-06-14T16:47:31;24.20;99.90
17529;DHT22;8882;53.192;8.184;2023-06-14T16:49:57;24.30;99.90
17529;DHT22;8882;53.192;8.184;2023-06-14T16:52:22;24.20;99.90
17529;DHT22;8882;53.192;8.184;2023-06-14T16:54:48;24.20;99.90
17529;DHT22;8882;53.192;8.184;2023-06-14T16:57:13;24.10;99.90
17529;DHT22;8882;53.192;8.184;2023-06-14T16:59:39;24.00;99.90
17529;DHT22;8882;53.192;8.184;2023-06-14T17:02:04;23.90;99.90
17529;DHT22;8882;53.192;8.184;2023-06-14T17:04:30;23.90;99.90
17529;DHT22;8882;53.192;8.184;2023-06-14T17:06:56;23.90;99.90
17529;DHT22;8882;53.192;8.184;2023-06-14T17:09:22;23.90;99.90
17529;DHT22;8882;53.192;8.184;2023-06-14T17:11:48;23.90;99.90
17529;DHT22;8882;53.192;8.184;2023-06-14T17:14:14;23.90;99.90
17529;DHT22;8882;53.192;8.184;2023-06-14T17:16:39;24.00;99.90
17529;DHT22;8882;53.192;8.184;2023-06-14T17:19:05;24.00;99.90
17529;DHT22;8882;53.192;8.184;2023-06-14T17:21:32;24.00;99.90
17529;DHT22;8882;53.192;8.184;2023-06-14T17:23:57;23.90;99.90
17529;DHT22;8882;53.192;8.184;2023-06-14T17:26:23;23.90;99.90
17529;DHT22;8882;53.192;8.184;2023-06-14T17:28:51;23.80;99.90
17529;DHT22;8882;53.192;8.184;2023-06-14T17:31:16;23.80;99.90
17529;DHT22;8882;53.192;8.184;2023-06-14T17:33:42;23.80;99.90
17529;DHT22;8882;53.192;8.184;2023-06-14T17:36:07;23.60;99.90
17529;DHT22;8882;53.192;8.184;2023-06-14T17:38:34;23.60;99.90
17529;DHT22;8882;53.192;8.184;2023-06-14T17:41:04;23.50;99.90
17529;DHT22;8882;53.192;8.184;2023-06-14T17:43:35;23.40;99.90
17529;DHT22;8882;53.192;8.184;2023-06-14T17:46:01;23.30;99.90
17529;DHT22;8882;53.192;8.184;2023-06-14T17:48:27;23.20;99.90
17529;DHT22;8882;53.192;8.184;2023-06-14T17:51:01;23.00;99.90
17529;DHT22;8882;53.192;8.184;2023-06-14T17:53:27;23.00;99.90
17529;DHT22;8882;53.192;8.184;2023-06-14T17:55:53;22.90;99.90
17529;DHT22;8882;53.192;8.184;2023-06-14T17:58:19;22.80;99.90
17529;DHT22;8882;53.192;8.184;2023-06-14T18:00:45;22.70;99.90
17529;DHT22;8882;53.192;8.184;2023-06-14T18:03:11;22.70;99.90
17529;DHT22;8882;53.192;8.184;2023-06-14T18:05:37;22.70;99.90
17529;DHT22;8882;53.192;8.184;2023-06-14T18:08:03;22.60;99.90
17529;DHT22;8882;53.192;8.184;2023-06-14T18:10:31;22.50;99.90
17529;DHT22;8882;53.192;8.184;2023-06-14T18:12:56;22.40;99.90
17529;DHT22;8882;53.192;8.184;2023-06-14T18:15:22;22.30;99.90
17529;DHT22;8882;53.192;8.184;2023-06-14T18:17:48;22.30;99.90
17529;DHT22;8882;53.192;8.184;2023-06-14T18:20:16;22.20;99.90
17529;DHT22;8882;53.192;8.184;2023-06-14T18:22:42;22.20;99.90
17529;DHT22;8882;53.192;8.184;2023-06-14T18:25:07;22.10;99.90
17529;DHT22;8882;53.192;8.184;2023-06-14T18:27:33;22.00;99.90
17529;DHT22;8882;53.192;8.184;2023-06-14T18:29:58;22.00;99.90
17529;DHT22;8882;53.192;8.184;2023-06-14T18:32:24;22.00;99.90
17529;DHT22;8882;53.192;8.184;2023-06-14T18:34:49;22.00;99.90
17529;DHT22;8882;53.192;8.184;2023-06-14T18:37:15;21.90;99.90
17529;DHT22;8882;53.192;8.184;2023-06-14T18:39:41;21.90;99.90
17529;DHT22;8882;53.192;8.184;2023-06-14T18:42:06;21.80;99.90
17529;DHT22;8882;53.192;8.184;2023-06-14T18:44:32;21.70;99.90
17529;DHT22;8882;53.192;8.184;2023-06-14T18:46:58;21.80;99.90
17529;DHT22;8882;53.192;8.184;2023-06-14T18:49:23;21.80;99.90
17529;DHT22;8882;53.192;8.184;2023-06-14T18:51:49;21.80;99.90
17529;DHT22;8882;53.192;8.184;2023-06-14T18:54:14;21.90;99.90
17529;DHT22;8882;53.192;8.184;2023-06-14T18:56:42;22.00;99.90
17529;DHT22;8882;53.192;8.184;2023-06-14T18:59:07;21.90;99.90
17529;DHT22;8882;53.192;8.184;2023-06-14T19:01:33;22.00;99.90
17529;DHT22;8882;53.192;8.184;2023-06-14T19:03:59;21.80;99.90
17529;DHT22;8882;53.192;8.184;2023-06-14T19:06:24;21.80;99.90
17529;DHT22;8882;53.192;8.184;2023-06-14T19:08:51;21.80;99.90
17529;DHT22;8882;53.192;8.184;2023-06-14T19:11:16;21.80;99.90
17529;DHT22;8882;53.192;8.184;2023-06-14T19:13:42;21.80;99.90
17529;DHT22;8882;53.192;8.184;2023-06-14T19:16:09;21.80;99.90
17529;DHT22;8882;53.192;8.184;2023-06-14T19:18:36;21.80;99.90
17529;DHT22;8882;53.192;8.184;2023-06-14T19:21:01;21.80;99.90
17529;DHT22;8882;53.192;8.184;2023-06-14T19:23:27;21.80;99.90
17529;DHT22;8882;53.192;8.184;2023-06-14T19:25:52;21.80;99.90
17529;DHT22;8882;53.192;8.184;2023-06-14T19:28:18;21.80;99.90
17529;DHT22;8882;53.192;8.184;2023-06-14T19:30:45;21.60;99.90
17529;DHT22;8882;53.192;8.184;2023-06-14T19:33:11;21.60;99.90
17529;DHT22;8882;53.192;8.184;2023-06-14T19:35:37;21.60;99.90
17529;DHT22;8882;53.192;8.184;2023-06-14T19:38:03;21.50;99.90
17529;DHT22;8882;53.192;8.184;2023-06-14T19:40:29;21.50;99.90
17529;DHT22;8882;53.192;8.184;2023-06-14T19:42:54;21.50;99.90
17529;DHT22;8882;53.192;8.184;2023-06-14T19:45:20;21.50;99.90
17529;DHT22;8882;53.192;8.184;2023-06-14T19:47:45;21.40;99.90
17529;DHT22;8882;53.192;8.184;2023-06-14T19:50:11;21.30;99.90
17529;DHT22;8882;53.192;8.184;2023-06-14T19:52:36;21.30;99.90
17529;DHT22;8882;53.192;8.184;2023-06-14T19:55:03;21.20;99.90
17529;DHT22;8882;53.192;8.184;2023-06-14T19:57:28;21.10;99.90
17529;DHT22;8882;53.192;8.184;2023-06-14T19:59:54;21.10;99.90
17529;DHT22;8882;53.192;8.184;2023-06-14T20:02:20;21.10;99.90
17529;DHT22;8882;53.192;8.184;2023-06-14T20:04:46;21.00;99.90
17529;DHT22;8882;53.192;8.184;2023-06-14T20:07:11;20.90;99.90
17529;DHT22;8882;53.192;8.184;2023-06-14T20:09:37;20.90;99.90
17529;DHT22;8882;53.192;8.184;2023-06-14T20:12:03;20.80;99.90
17529;DHT22;8882;53.192;8.184;2023-06-14T20:14:29;20.80;99.90
17529;DHT22;8882;53.192;8.184;2023-06-14T20:16:55;20.70;99.90
17529;DHT22;8882;53.192;8.184;2023-06-14T20:19:21;20.70;99.90
17529;DHT22;8882;53.192;8.184;2023-06-14T20:21:46;20.60;99.90
17529;DHT22;8882;53.192;8.184;2023-06-14T20:24:12;20.50;99.90